Time;durP1;ratioP1;P1;durP2;ratioP2;P2;SDS_P1;SDS_P2;PMS_P1;PMS_P2;Temp;Humidity;BMP_temperature;BMP_pressure;BME280_temperature;BME280_humidity;BME280_pressure;Samples;Min_cycle;Max_cycle;Signal;HPM_P1;HPM_P2
2023/07/15 00:00:44;;;;;;;5.18;2.78;;;20.20;99.90;;;;;;6177490;23;20012;-89
2023/07/15 00:03:11;;;;;;;7.20;3.08;;;20.20;99.90;;;;;;6179238;23;20009;-88
2023/07/15 00:05:37;;;;;;;18.15;3.33;;;20.20;99.90;;;;;;6177277;23;20013;-88
2023/07/15 00:08:03;;;;;;;8.55;3.10;;;20.30;99.90;;;;;;6179529;23;20270;-86
2023/07/15 00:10:29;;;;;;;7.30;2.70;;;20.30;99.90;;;;;;6178444;23;20032;-88
2023/07/15 00:12:56;;;;;;;8.35;2.85;;;20.20;99.90;;;;;;6178467;23;20009;-89
2023/07/15 00:15:22;;;;;;;8.35;3.00;;;20.30;99.90;;;;;;6178764;23;20147;-87
2023/07/15 00:17:51;;;;;;;10.55;2.92;;;20.30;99.10;;;;;;6177358;23;20020;-84
2023/07/15 00:20:19;;;;;;;5.68;3.25;;;20.40;98.80;;;;;;6178719;23;20379;-88
2023/07/15 00:22:45;;;;;;;5.35;2.45;;;20.50;99.10;;;;;;6177825;23;20032;-88
2023/07/15 00:25:16;;;;;;;5.07;2.63;;;20.50;99.90;;;;;;6178907;23;20024;-87
2023/07/15 00:27:43;;;;;;;5.85;2.67;;;20.50;99.60;;;;;;6177133;23;19997;-89
2023/07/15 00:30:11;;;;;;;6.63;2.63;;;20.50;99.90;;;;;;6177881;23;20001;-85
2023/07/15 00:32:37;;;;;;;4.28;2.92;;;20.40;99.90;;;;;;6178628;23;20001;-84
2023/07/15 00:35:14;;;;;;;5.78;2.83;;;20.40;99.90;;;;;;6177416;23;20497;-87
2023/07/15 00:37:40;;;;;;;6.70;2.65;;;20.40;99.40;;;;;;6177667;23;20443;-88
2023/07/15 00:40:08;;;;;;;9.07;2.95;;;20.50;98.90;;;;;;6178721;23;20027;-88
2023/07/15 00:43:11;;;;;;;4.28;2.45;;;20.50;98.80;;;;;;6177367;23;20005;-88
2023/07/15 00:45:36;;;;;;;7.25;2.22;;;20.50;98.60;;;;;;6177793;23;20061;-89
2023/07/15 00:48:15;;;;;;;4.53;2.60;;;20.50;98.50;;;;;;6177059;23;20378;-89
2023/07/15 00:50:42;;;;;;;6.07;2.83;;;20.50;98.60;;;;;;6177831;23;20076;-88
2023/07/15 00:53:09;;;;;;;4.72;2.80;;;20.60;97.20;;;;;;6177561;23;20466;-85
2023/07/15 00:55:36;;;;;;;7.15;3.38;;;20.50;97.10;;;;;;6176945;23;20005;-88
2023/07/15 00:58:03;;;;;;;6.20;3.33;;;20.50;97.40;;;;;;6178161;23;20331;-88
2023/07/15 01:00:30;;;;;;;5.03;3.28;;;20.50;97.20;;;;;;6177504;23;20202;-88
2023/07/15 01:02:56;;;;;;;3.53;2.53;;;20.50;96.80;;;;;;6177770;23;20328;-87
2023/07/15 01:05:21;;;;;;;7.13;3.03;;;20.50;97.50;;;;;;6177574;23;20013;-86
2023/07/15 01:07:47;;;;;;;10.88;3.28;;;20.50;98.10;;;;;;6178332;23;19997;-88
2023/07/15 01:10:13;;;;;;;10.35;3.50;;;20.50;99.20;;;;;;6176533;23;20411;-89
2023/07/15 01:12:38;;;;;;;5.07;2.65;;;20.40;98.90;;;;;;6178158;23;20047;-84
2023/07/15 01:15:06;;;;;;;9.43;3.50;;;20.40;98.90;;;;;;6178417;23;20008;-88
2023/07/15 01:17:32;;;;;;;9.95;4.18;;;20.30;98.60;;;;;;6176647;23;20021;-87
2023/07/15 01:19:57;;;;;;;8.05;2.92;;;20.30;99.40;;;;;;6176485;23;20502;-88
2023/07/15 01:22:27;;;;;;;6.60;3.00;;;20.30;99.20;;;;;;6175863;23;20005;-84
2023/07/15 01:24:52;;;;;;;8.25;3.20;;;20.30;98.20;;;;;;6178305;23;20001;-88
2023/07/15 01:27:18;;;;;;;4.88;3.00;;;20.20;98.80;;;;;;6177440;23;20012;-88
2023/07/15 01:29:44;;;;;;;6.45;3.40;;;20.20;98.20;;;;;;6177126;23;20435;-88
2023/07/15 01:32:09;;;;;;;7.63;3.35;;;20.30;97.70;;;;;;6177325;23;20071;-88
2023/07/15 01:34:36;;;;;;;4.57;2.78;;;20.30;97.60;;;;;;6175852;23;20005;-88
2023/07/15 01:37:03;;;;;;;4.80;2.63;;;20.30;98.00;;;;;;6177288;23;20293;-87
2023/07/15 01:39:28;;;;;;;9.35;3.17;;;20.40;97.10;;;;;;6178330;23;20055;-88
2023/07/15 01:41:55;;;;;;;7.32;2.92;;;20.30;97.00;;;;;;6151478;23;20375;-89
2023/07/15 01:44:22;;;;;;;6.95;2.90;;;20.40;96.80;;;;;;6178121;23;20447;-88
2023/07/15 01:46:49;;;;;;;6.45;3.00;;;20.40;96.50;;;;;;6177637;23;20005;-84
2023/07/15 01:49:15;;;;;;;4.90;2.50;;;20.40;96.90;;;;;;6177842;23;20040;-86
2023/07/15 01:51:40;;;;;;;10.00;2.30;;;20.40;97.20;;;;;;6176830;23;20028;-89
2023/07/15 01:54:06;;;;;;;5.60;2.97;;;20.40;96.60;;;;;;6176893;23;20009;-88
2023/07/15 01:56:32;;;;;;;7.63;3.20;;;20.40;97.20;;;;;;6176975;23;20462;-88
2023/07/15 01:58:57;;;;;;;6.88;2.90;;;20.50;96.40;;;;;;6177065;23;20083;-86
2023/07/15 02:01:25;;;;;;;6.78;3.08;;;20.50;97.00;;;;;;6176433;23;20055;-84
2023/07/15 02:03:51;;;;;;;6.10;2.63;;;20.50;96.80;;;;;;6177338;23;20083;-89
2023/07/15 02:06:16;;;;;;;5.35;2.63;;;20.40;96.40;;;;;;6177042;23;20013;-89
2023/07/15 02:08:42;;;;;;;3.63;2.42;;;20.40;97.30;;;;;;6176861;23;20271;-88
2023/07/15 02:11:07;;;;;;;4.32;2.38;;;20.50;96.90;;;;;;6177123;23;20005;-86
2023/07/15 02:13:34;;;;;;;6.10;2.80;;;20.40;97.40;;;;;;6177876;23;20032;-84
2023/07/15 02:16:00;;;;;;;7.50;3.40;;;20.40;97.30;;;;;;6177225;23;20004;-88
2023/07/15 02:18:25;;;;;;;7.68;3.15;;;20.30;98.10;;;;;;6176382;23;20020;-89
2023/07/15 02:20:51;;;;;;;5.35;2.85;;;20.30;97.50;;;;;;6178114;23;20005;-88
2023/07/15 02:23:17;;;;;;;4.70;2.38;;;20.20;99.10;;;;;;6176795;23;20402;-88
2023/07/15 02:25:43;;;;;;;5.55;2.50;;;20.20;98.30;;;;;;6176810;23;20033;-86
2023/07/15 02:28:09;;;;;;;10.48;2.92;;;20.20;99.30;;;;;;6177365;23;20005;-84
2023/07/15 02:30:34;;;;;;;9.77;3.05;;;20.20;99.90;;;;;;6177303;23;20084;-89
2023/07/15 02:33:01;;;;;;;6.30;2.85;;;20.10;99.90;;;;;;6177368;23;20017;-88
2023/07/15 02:35:27;;;;;;;6.43;2.70;;;20.00;99.70;;;;;;6177079;23;20147;-89
2023/07/15 02:37:55;;;;;;;9.43;2.80;;;20.00;99.80;;;;;;6176464;23;20440;-87
2023/07/15 02:40:20;;;;;;;4.75;2.50;;;20.00;99.40;;;;;;6176539;23;20423;-91
2023/07/15 02:42:46;;;;;;;6.60;2.60;;;19.90;99.90;;;;;;6177357;23;20005;-89
2023/07/15 02:45:15;;;;;;;8.88;2.70;;;19.90;99.90;;;;;;6177766;23;20001;-87
2023/07/15 02:47:41;;;;;;;3.85;2.65;;;19.80;99.90;;;;;;6177361;23;20001;-89
2023/07/15 02:50:08;;;;;;;11.90;2.33;;;19.80;99.90;;;;;;6151415;23;20308;-85
2023/07/15 02:52:36;;;;;;;11.80;2.78;;;19.70;99.90;;;;;;6176589;23;20048;-87
2023/07/15 02:55:06;;;;;;;6.25;2.53;;;19.70;99.90;;;;;;6177976;23;20001;-88
2023/07/15 02:57:32;;;;;;;8.30;3.20;;;19.70;99.90;;;;;;6177073;23;20039;-89
2023/07/15 02:59:58;;;;;;;6.68;3.05;;;19.60;99.90;;;;;;6175152;23;20060;-88
2023/07/15 03:02:25;;;;;;;6.57;2.85;;;19.70;99.90;;;;;;6175517;23;20005;-85
2023/07/15 03:04:51;;;;;;;5.95;2.88;;;19.60;99.90;;;;;;6177634;23;20025;-88
2023/07/15 03:07:17;;;;;;;7.65;3.00;;;19.70;99.90;;;;;;6176729;23;20490;-87
2023/07/15 03:09:44;;;;;;;7.53;2.83;;;19.60;99.90;;;;;;6177768;23;20337;-87
2023/07/15 03:12:11;;;;;;;8.73;2.60;;;19.70;99.90;;;;;;6176294;23;20005;-88
2023/07/15 03:14:36;;;;;;;6.03;3.40;;;19.80;99.90;;;;;;6178121;23;20036;-89
2023/07/15 03:17:03;;;;;;;7.45;2.72;;;19.80;99.90;;;;;;6178068;23;20071;-88
2023/07/15 03:19:32;;;;;;;8.25;2.58;;;19.90;99.90;;;;;;6178491;23;19997;-89
2023/07/15 03:21:58;;;;;;;4.70;2.58;;;19.90;99.90;;;;;;6180008;23;20001;-88
2023/07/15 03:24:27;;;;;;;14.05;3.33;;;19.90;99.90;;;;;;6179814;23;20057;-87
2023/07/15 03:26:53;;;;;;;5.25;2.42;;;20.00;99.90;;;;;;6179022;23;20001;-89
2023/07/15 03:29:19;;;;;;;6.00;2.95;;;20.00;99.90;;;;;;6179511;23;20001;-88
2023/07/15 03:31:44;;;;;;;6.40;2.90;;;20.00;99.90;;;;;;6179473;23;20001;-88
2023/07/15 03:34:10;;;;;;;6.47;2.20;;;20.00;99.90;;;;;;6178985;23;20005;-90
2023/07/15 03:36:36;;;;;;;5.90;2.92;;;20.00;99.90;;;;;;6178082;23;20009;-89
2023/07/15 03:39:01;;;;;;;5.63;2.50;;;20.10;99.90;;;;;;6174908;23;20313;-87
2023/07/15 03:41:27;;;;;;;10.88;2.65;;;20.20;99.90;;;;;;6175899;23;20031;-88
2023/07/15 03:43:53;;;;;;;8.35;2.38;;;20.20;99.90;;;;;;6178449;23;20005;-84
2023/07/15 03:46:18;;;;;;;9.60;2.25;;;20.30;99.90;;;;;;6177881;23;20371;-89
2023/07/15 03:48:44;;;;;;;5.70;2.92;;;20.40;99.60;;;;;;6177549;23;20005;-86
2023/07/15 03:51:13;;;;;;;9.98;2.28;;;20.50;99.30;;;;;;6178403;23;19997;-84
2023/07/15 03:53:38;;;;;;;3.90;2.08;;;20.50;99.00;;;;;;6178410;23;20080;-84
2023/07/15 03:56:04;;;;;;;2.88;2.05;;;20.50;99.10;;;;;;6178182;23;20021;-87
2023/07/15 03:58:32;;;;;;;5.93;2.42;;;20.60;98.80;;;;;;6178715;23;20021;-88
2023/07/15 04:01:02;;;;;;;5.25;2.60;;;20.60;99.00;;;;;;6178651;23;20005;-87
2023/07/15 04:03:28;;;;;;;7.30;2.25;;;20.70;99.40;;;;;;6152388;23;20032;-88
2023/07/15 04:05:54;;;;;;;7.20;2.67;;;20.70;99.80;;;;;;6178922;23;20089;-84
2023/07/15 04:08:19;;;;;;;8.73;2.53;;;20.80;99.90;;;;;;6178980;23;20048;-88
2023/07/15 04:10:48;;;;;;;4.85;2.63;;;20.80;99.90;;;;;;6177647;23;19997;-88
2023/07/15 04:13:14;;;;;;;10.60;2.75;;;20.90;99.90;;;;;;6178484;23;20004;-83
2023/07/15 04:15:43;;;;;;;5.95;2.92;;;21.00;99.90;;;;;;6178980;23;20009;-88
2023/07/15 04:18:08;;;;;;;10.57;2.58;;;21.00;99.90;;;;;;6178720;23;20386;-86
2023/07/15 04:20:37;;;;;;;3.13;1.95;;;21.10;99.90;;;;;;6178738;23;20012;-88
2023/07/15 04:23:03;;;;;;;9.18;3.03;;;21.20;99.90;;;;;;6179013;23;20005;-85
2023/07/15 04:25:28;;;;;;;5.40;2.67;;;21.30;99.90;;;;;;6177148;23;20424;-87
2023/07/15 04:27:54;;;;;;;5.05;2.67;;;21.40;99.90;;;;;;6151409;23;20005;-83
2023/07/15 04:30:20;;;;;;;5.93;2.55;;;21.50;99.90;;;;;;6178336;23;20005;-90
2023/07/15 04:32:46;;;;;;;4.72;2.25;;;21.60;99.90;;;;;;6177504;23;20001;-88
2023/07/15 04:35:14;;;;;;;4.85;2.42;;;21.70;99.90;;;;;;6178435;23;20005;-86
2023/07/15 04:37:40;;;;;;;8.45;2.40;;;21.80;99.90;;;;;;6177751;23;20017;-90
2023/07/15 04:40:07;;;;;;;6.38;2.28;;;21.80;99.90;;;;;;6178155;23;20024;-86
2023/07/15 04:42:33;;;;;;;5.47;2.67;;;21.80;99.90;;;;;;6175355;23;19997;-86
2023/07/15 04:44:58;;;;;;;8.05;2.22;;;22.00;99.90;;;;;;6179057;23;20131;-87
2023/07/15 04:47:24;;;;;;;4.55;2.20;;;21.90;99.90;;;;;;6178333;23;20431;-84
2023/07/15 04:49:52;;;;;;;10.40;2.50;;;22.00;99.90;;;;;;6177973;23;19997;-89
2023/07/15 04:52:18;;;;;;;11.57;2.60;;;21.90;99.90;;;;;;6177301;23;20428;-84
2023/07/15 04:54:44;;;;;;;3.92;2.30;;;22.00;99.90;;;;;;6177605;23;20550;-86
2023/07/15 04:57:11;;;;;;;5.68;2.33;;;22.10;99.90;;;;;;6178394;23;20013;-86
2023/07/15 04:59:37;;;;;;;5.28;2.88;;;22.00;99.90;;;;;;6178284;23;20111;-85
2023/07/15 05:02:02;;;;;;;7.93;2.40;;;22.10;99.90;;;;;;6177777;23;20025;-85
2023/07/15 05:04:29;;;;;;;12.20;2.22;;;22.10;99.90;;;;;;6177847;23;20458;-85
2023/07/15 05:06:54;;;;;;;6.70;2.30;;;22.10;99.90;;;;;;6178017;23;20009;-87
2023/07/15 05:09:30;;;;;;;3.33;2.42;;;22.10;99.90;;;;;;6179028;23;20011;-85
2023/07/15 05:12:00;;;;;;;3.47;2.22;;;22.20;99.90;;;;;;6178691;23;20083;-89
2023/07/15 05:14:26;;;;;;;4.10;1.90;;;22.10;99.90;;;;;;6178498;23;20001;-86
2023/07/15 05:16:51;;;;;;;8.52;2.80;;;22.10;99.90;;;;;;6178056;23;20009;-86
2023/07/15 05:19:17;;;;;;;7.43;2.47;;;22.10;99.90;;;;;;6177700;23;20071;-86
2023/07/15 05:21:43;;;;;;;5.07;2.47;;;22.10;99.90;;;;;;6177695;23;20496;-85
2023/07/15 05:24:08;;;;;;;9.23;2.53;;;22.10;99.90;;;;;;6178120;23;20059;-87
2023/07/15 05:26:34;;;;;;;8.77;2.65;;;22.00;99.90;;;;;;6176047;23;20432;-87
2023/07/15 05:28:59;;;;;;;7.95;2.45;;;22.00;99.90;;;;;;6177595;23;20001;-87
2023/07/15 05:31:25;;;;;;;9.65;2.75;;;22.10;99.90;;;;;;6176439;23;20031;-89
2023/07/15 05:33:51;;;;;;;5.13;2.03;;;22.20;99.90;;;;;;6177090;23;20001;-87
2023/07/15 05:36:16;;;;;;;8.30;2.30;;;22.30;99.90;;;;;;6177707;23;20334;-87
2023/07/15 05:38:44;;;;;;;4.05;2.33;;;22.40;99.90;;;;;;6175667;23;20020;-88
2023/07/15 05:41:13;;;;;;;5.07;2.25;;;22.50;99.90;;;;;;6176532;23;20084;-88
2023/07/15 05:43:39;;;;;;;9.30;2.05;;;22.70;99.90;;;;;;6177773;23;20009;-86
2023/07/15 05:46:05;;;;;;;4.85;2.30;;;22.80;99.90;;;;;;6178080;23;20011;-88
2023/07/15 05:48:31;;;;;;;4.07;2.30;;;22.90;99.90;;;;;;6177688;23;20005;-88
2023/07/15 05:50:56;;;;;;;8.77;2.47;;;23.00;99.90;;;;;;6177139;23;20025;-88
2023/07/15 05:53:22;;;;;;;13.23;2.42;;;23.10;99.90;;;;;;6176369;23;20016;-85
2023/07/15 05:55:47;;;;;;;7.63;2.45;;;23.20;99.60;;;;;;6178328;23;20368;-88
2023/07/15 05:58:13;;;;;;;5.80;2.17;;;23.30;99.90;;;;;;6177637;23;20073;-87
2023/07/15 06:00:40;;;;;;;4.72;2.50;;;23.40;99.40;;;;;;6175348;23;20427;-84
2023/07/15 06:03:06;;;;;;;6.65;1.83;;;23.50;99.60;;;;;;6176248;23;20451;-91
2023/07/15 06:05:31;;;;;;;4.38;2.22;;;23.60;98.50;;;;;;6177624;23;20024;-88
2023/07/15 06:08:00;;;;;;;12.25;2.55;;;23.60;98.10;;;;;;6177187;23;20002;-89
2023/07/15 06:10:26;;;;;;;5.13;2.10;;;23.70;98.20;;;;;;6172384;23;20017;-88
2023/07/15 06:12:52;;;;;;;5.68;2.63;;;23.70;98.60;;;;;;6173215;23;20008;-86
2023/07/15 06:15:20;;;;;;;8.32;2.50;;;23.80;98.00;;;;;;6175181;23;20010;-89
2023/07/15 06:17:45;;;;;;;5.68;2.22;;;23.80;97.90;;;;;;6176066;23;20013;-89
2023/07/15 06:20:12;;;;;;;8.30;2.38;;;23.80;97.60;;;;;;6150518;23;19993;-87
2023/07/15 06:22:37;;;;;;;4.28;2.22;;;23.90;97.60;;;;;;6177763;23;20052;-86
2023/07/15 06:25:03;;;;;;;6.13;2.45;;;23.90;96.70;;;;;;6175495;23;20005;-87
2023/07/15 06:27:29;;;;;;;7.40;2.53;;;24.00;96.80;;;;;;6175106;23;20060;-86
2023/07/15 06:29:54;;;;;;;11.25;2.70;;;24.00;96.40;;;;;;6175853;23;20004;-85
2023/07/15 06:32:20;;;;;;;5.50;2.65;;;24.00;96.30;;;;;;6175541;23;20033;-89
2023/07/15 06:34:45;;;;;;;5.57;2.58;;;24.00;97.00;;;;;;6176320;23;20025;-85
2023/07/15 06:37:11;;;;;;;3.95;2.33;;;24.10;96.80;;;;;;6177025;23;20435;-89
2023/07/15 06:39:36;;;;;;;10.50;2.72;;;24.20;96.50;;;;;;6176542;23;20011;-87
2023/07/15 06:42:02;;;;;;;7.07;2.22;;;24.20;96.20;;;;;;6177573;23;19998;-86
2023/07/15 06:44:28;;;;;;;3.67;2.17;;;24.20;96.60;;;;;;6174895;23;20005;-86
2023/07/15 06:46:54;;;;;;;13.13;2.33;;;24.30;96.80;;;;;;6178577;23;20005;-88
2023/07/15 06:49:19;;;;;;;6.35;2.13;;;24.40;97.70;;;;;;6176142;23;20614;-88
2023/07/15 06:51:45;;;;;;;7.10;2.60;;;24.30;96.40;;;;;;6178775;23;20041;-88
2023/07/15 06:54:10;;;;;;;8.43;2.88;;;24.40;95.30;;;;;;6178626;23;20450;-86
2023/07/15 06:56:36;;;;;;;5.22;1.88;;;24.40;95.10;;;;;;6149204;23;20001;-86
2023/07/15 06:59:02;;;;;;;4.72;2.08;;;24.50;95.40;;;;;;6177071;23;20021;-89
2023/07/15 07:01:28;;;;;;;3.47;2.10;;;24.60;94.20;;;;;;6177611;23;20005;-85
2023/07/15 07:03:53;;;;;;;4.00;2.03;;;24.70;94.20;;;;;;6179398;23;20051;-89
2023/07/15 07:06:22;;;;;;;5.68;2.50;;;24.70;93.50;;;;;;6178418;23;20336;-83
2023/07/15 07:08:48;;;;;;;6.00;2.10;;;24.80;93.30;;;;;;6178417;23;20416;-89
2023/07/15 07:11:13;;;;;;;8.15;2.17;;;24.80;93.40;;;;;;6179246;23;20329;-85
2023/07/15 07:13:39;;;;;;;9.70;2.35;;;24.90;93.90;;;;;;6151896;23;20001;-85
2023/07/15 07:16:05;;;;;;;4.25;1.80;;;24.90;93.90;;;;;;6176615;23;20004;-84
2023/07/15 07:18:30;;;;;;;5.78;2.10;;;25.00;93.00;;;;;;6177062;23;20035;-88
2023/07/15 07:20:57;;;;;;;3.35;1.88;;;25.00;93.30;;;;;;6177846;23;19993;-87
2023/07/15 07:23:23;;;;;;;4.93;2.08;;;25.10;91.80;;;;;;6179083;23;20243;-88
2023/07/15 07:25:49;;;;;;;3.92;2.47;;;25.10;93.30;;;;;;6178363;23;20436;-89
2023/07/15 07:28:15;;;;;;;2.88;1.90;;;25.20;91.00;;;;;;6177731;23;20016;-83
2023/07/15 07:30:41;;;;;;;5.53;2.22;;;25.30;90.60;;;;;;6177496;23;20008;-89
2023/07/15 07:33:06;;;;;;;4.90;2.40;;;25.40;91.20;;;;;;6178372;23;20052;-88
2023/07/15 07:35:32;;;;;;;9.18;2.17;;;25.40;88.80;;;;;;6177581;23;20009;-90
2023/07/15 07:37:58;;;;;;;6.32;2.33;;;25.40;90.40;;;;;;6176670;23;20016;-90
2023/07/15 07:40:23;;;;;;;5.68;1.95;;;25.50;90.10;;;;;;6181183;23;20080;-91
2023/07/15 07:42:49;;;;;;;8.43;2.10;;;25.50;88.10;;;;;;6152245;23;20005;-89
2023/07/15 07:45:16;;;;;;;3.70;2.00;;;25.60;89.60;;;;;;6154422;23;20025;-90
2023/07/15 07:47:41;;;;;;;2.63;1.80;;;25.70;91.50;;;;;;6177967;23;20001;-89
2023/07/15 07:50:07;;;;;;;3.35;1.98;;;25.80;89.60;;;;;;6176748;23;20005;-87
2023/07/15 07:52:33;;;;;;;6.05;2.10;;;25.80;89.80;;;;;;6179225;23;20435;-91
2023/07/15 07:54:58;;;;;;;10.95;3.22;;;25.80;88.50;;;;;;6151423;23;20055;-89
2023/07/15 07:57:24;;;;;;;6.32;2.10;;;25.90;91.20;;;;;;6150472;23;20016;-88
2023/07/15 07:59:50;;;;;;;2.90;1.77;;;26.10;88.30;;;;;;6149292;23;20055;-89
2023/07/15 08:02:17;;;;;;;2.65;1.80;;;26.10;87.20;;;;;;6177712;23;20001;-91
2023/07/15 08:04:42;;;;;;;2.45;1.67;;;26.20;82.90;;;;;;6177716;23;20080;-90
2023/07/15 08:07:08;;;;;;;20.75;2.13;;;26.20;85.40;;;;;;6178709;23;20052;-86
2023/07/15 08:09:34;;;;;;;6.68;2.22;;;26.20;81.10;;;;;;6178449;23;20001;-83
2023/07/15 08:12:00;;;;;;;3.85;2.10;;;26.40;79.20;;;;;;6177437;23;20084;-88
2023/07/15 08:14:25;;;;;;;5.20;1.90;;;26.40;79.00;;;;;;6177031;23;20028;-90
2023/07/15 08:16:51;;;;;;;4.05;2.08;;;26.40;77.80;;;;;;6178302;23;20084;-90
2023/07/15 08:19:16;;;;;;;6.35;2.10;;;26.40;78.00;;;;;;6177980;23;20447;-89
2023/07/15 08:21:42;;;;;;;8.90;2.00;;;26.40;80.40;;;;;;6178547;23;20055;-90
2023/07/15 08:24:08;;;;;;;5.05;2.17;;;26.40;79.80;;;;;;6176928;23;20005;-87
2023/07/15 08:26:33;;;;;;;4.57;2.33;;;26.40;77.20;;;;;;6151495;23;20451;-88
2023/07/15 08:29:02;;;;;;;4.22;2.10;;;26.50;81.40;;;;;;6178033;23;20019;-82
2023/07/15 08:31:28;;;;;;;7.07;2.65;;;26.60;82.00;;;;;;6177880;23;20043;-83
2023/07/15 08:33:53;;;;;;;3.28;1.70;;;26.60;75.50;;;;;;6178663;23;19997;-85
2023/07/15 08:36:20;;;;;;;8.65;1.98;;;26.80;79.20;;;;;;6179351;23;20416;-89
2023/07/15 08:38:45;;;;;;;6.07;2.05;;;26.90;77.50;;;;;;6178846;23;20013;-89
2023/07/15 08:41:12;;;;;;;3.83;1.70;;;27.10;74.90;;;;;;6177622;23;20621;-90
2023/07/15 08:43:38;;;;;;;5.18;2.10;;;27.20;73.80;;;;;;6176778;23;19997;-89
2023/07/15 08:46:17;;;;;;;4.50;1.92;;;27.20;73.90;;;;;;6178290;23;20339;-88
2023/07/15 08:48:42;;;;;;;3.03;1.90;;;27.30;75.90;;;;;;6178135;23;19997;-85
2023/07/15 08:51:09;;;;;;;3.17;1.73;;;27.40;71.50;;;;;;6177323;23;20260;-88
2023/07/15 08:53:37;;;;;;;2.55;1.90;;;27.50;69.50;;;;;;6178745;23;20044;-87
2023/07/15 08:56:05;;;;;;;4.47;1.95;;;27.60;71.80;;;;;;6178927;23;20092;-88
2023/07/15 08:58:31;;;;;;;4.10;1.67;;;27.60;67.90;;;;;;6178642;23;20013;-88
2023/07/15 09:00:56;;;;;;;2.65;1.55;;;27.60;66.80;;;;;;6177901;23;20316;-89
2023/07/15 09:07:35;;;;;;;7.05;2.10;;;27.90;62.10;;;;;;6182806;23;20043;-91
2023/07/15 09:10:05;;;;;;;5.80;1.88;;;28.10;62.50;;;;;;6122300;23;20116;-87
2023/07/15 09:12:31;;;;;;;7.35;1.63;;;28.20;60.00;;;;;;6145232;23;20096;-89
2023/07/15 09:14:57;;;;;;;4.65;1.40;;;28.40;61.70;;;;;;6149543;23;20021;-88
2023/07/15 09:17:26;;;;;;;4.50;1.73;;;28.40;61.60;;;;;;6148630;23;20059;-88
2023/07/15 09:19:52;;;;;;;9.02;1.77;;;28.40;62.00;;;;;;6122435;23;20005;-85
2023/07/15 09:22:19;;;;;;;5.50;1.73;;;28.50;61.00;;;;;;6147759;23;20040;-86
2023/07/15 09:24:44;;;;;;;1.70;1.60;;;28.50;61.20;;;;;;6148333;23;20445;-85
2023/07/15 09:27:10;;;;;;;2.67;1.63;;;28.60;60.10;;;;;;6149163;23;20080;-87
2023/07/15 09:29:36;;;;;;;6.00;1.90;;;28.70;57.30;;;;;;6147261;23;20001;-88
2023/07/15 09:32:02;;;;;;;11.38;2.33;;;28.90;56.40;;;;;;6121885;23;20004;-88
2023/07/15 09:34:28;;;;;;;3.40;1.55;;;28.90;58.50;;;;;;6147729;23;20005;-87
2023/07/15 09:36:54;;;;;;;1.70;1.60;;;28.90;58.20;;;;;;6148048;23;20105;-86
2023/07/15 09:39:22;;;;;;;6.35;2.17;;;29.00;58.70;;;;;;6121128;23;20010;-87
2023/07/15 09:42:05;;;;;;;8.00;2.00;;;29.10;57.80;;;;;;6147233;23;20024;-86
2023/07/15 09:44:38;;;;;;;3.92;1.77;;;29.30;56.70;;;;;;6145089;23;20005;-85
2023/07/15 09:47:04;;;;;;;3.67;1.77;;;29.30;58.30;;;;;;6142936;23;20034;-85
2023/07/15 09:49:31;;;;;;;2.58;1.35;;;29.30;55.90;;;;;;6143337;23;20032;-84
2023/07/15 09:51:58;;;;;;;7.30;2.95;;;29.30;57.90;;;;;;6121518;23;20001;-84
2023/07/15 09:54:25;;;;;;;3.22;1.65;;;29.30;58.60;;;;;;6147703;23;20032;-87
2023/07/15 09:56:58;;;;;;;6.20;1.55;;;29.30;57.90;;;;;;6144965;23;20001;-85
2023/07/15 09:59:30;;;;;;;3.65;1.83;;;29.40;58.00;;;;;;6145020;23;20480;-81
2023/07/15 10:02:04;;;;;;;4.40;2.15;;;29.40;57.70;;;;;;6146270;23;20005;-86
2023/07/15 10:04:34;;;;;;;9.15;2.63;;;29.50;58.10;;;;;;6147559;23;20008;-87
2023/07/15 10:07:02;;;;;;;3.35;1.65;;;29.50;56.90;;;;;;6145905;23;20455;-86
2023/07/15 10:09:31;;;;;;;6.22;1.90;;;29.60;56.30;;;;;;6168651;23;20020;-86
2023/07/15 10:11:58;;;;;;;2.30;1.98;;;29.60;55.70;;;;;;6176841;23;20443;-86
2023/07/15 10:14:26;;;;;;;5.95;1.80;;;29.70;57.80;;;;;;6178126;23;20025;-85
2023/07/15 10:17:15;;;;;;;2.50;1.70;;;29.70;56.60;;;;;;6176203;23;20059;-86
2023/07/15 10:19:47;;;;;;;3.58;1.65;;;29.90;56.50;;;;;;6176339;23;20423;-86
2023/07/15 10:22:13;;;;;;;4.07;1.38;;;29.90;57.50;;;;;;6177539;23;20452;-83
2023/07/15 10:24:56;;;;;;;5.15;1.80;;;30.10;54.60;;;;;;6175839;23;20435;-84
2023/07/15 10:27:25;;;;;;;6.63;2.13;;;30.20;53.70;;;;;;6177319;23;20072;-87
2023/07/15 10:30:25;;;;;;;6.18;2.35;;;30.20;54.50;;;;;;6178079;23;20005;-86
2023/07/15 10:33:06;;;;;;;5.22;1.63;;;30.00;56.20;;;;;;6177671;23;19994;-87
2023/07/15 10:35:33;;;;;;;2.80;2.00;;;30.00;55.90;;;;;;6175977;23;20040;-86
2023/07/15 10:38:21;;;;;;;3.28;1.65;;;29.90;52.50;;;;;;6150432;23;20021;-86
2023/07/15 10:40:47;;;;;;;5.70;1.80;;;29.90;55.70;;;;;;6150130;23;20084;-86
2023/07/15 10:43:23;;;;;;;6.68;1.60;;;30.00;55.00;;;;;;6149961;23;20017;-86
2023/07/15 10:45:55;;;;;;;1.75;1.58;;;30.10;58.60;;;;;;6177686;23;20009;-86
2023/07/15 10:48:22;;;;;;;3.33;1.73;;;30.10;57.30;;;;;;6178942;23;20059;-86
2023/07/15 10:50:52;;;;;;;6.25;2.10;;;30.30;54.20;;;;;;6177441;23;20001;-86
2023/07/15 10:53:26;;;;;;;7.20;1.98;;;30.30;52.90;;;;;;6177006;23;20002;-87
2023/07/15 10:55:59;;;;;;;5.53;2.08;;;30.20;55.20;;;;;;6177570;23;20001;-85
2023/07/15 10:58:40;;;;;;;5.22;1.80;;;30.10;56.10;;;;;;6175457;23;20427;-85
2023/07/15 11:01:11;;;;;;;8.35;2.30;;;30.00;55.60;;;;;;6177274;23;20013;-87
2023/07/15 11:03:41;;;;;;;4.15;2.10;;;29.90;56.90;;;;;;6176640;23;20009;-85
2023/07/15 11:06:07;;;;;;;3.75;1.73;;;29.80;55.10;;;;;;6176495;23;20005;-85
2023/07/15 11:08:33;;;;;;;3.67;1.92;;;29.80;57.30;;;;;;6175543;23;20232;-85
2023/07/15 11:11:00;;;;;;;3.80;1.42;;;29.70;55.70;;;;;;6175544;23;20024;-87
2023/07/15 11:13:27;;;;;;;6.43;1.83;;;29.80;55.70;;;;;;6175724;23;20008;-86
2023/07/15 11:15:53;;;;;;;6.43;1.77;;;29.80;54.60;;;;;;6176172;23;20387;-84
2023/07/15 11:18:23;;;;;;;2.05;1.35;;;29.80;55.30;;;;;;6176616;23;20253;-82
2023/07/15 11:20:54;;;;;;;4.80;1.48;;;29.70;55.50;;;;;;6176982;23;20005;-85
2023/07/15 11:23:20;;;;;;;3.78;2.00;;;29.70;54.90;;;;;;6177110;23;20001;-85
2023/07/15 11:25:46;;;;;;;2.78;1.70;;;29.70;54.50;;;;;;6150328;23;20450;-85
2023/07/15 11:28:12;;;;;;;4.30;1.65;;;29.70;54.40;;;;;;6147728;23;19998;-86
2023/07/15 11:30:43;;;;;;;2.97;1.98;;;29.70;54.80;;;;;;6175265;23;20335;-85
2023/07/15 11:33:09;;;;;;;5.10;2.10;;;29.70;55.10;;;;;;6174644;23;20108;-85
2023/07/15 11:35:37;;;;;;;9.18;2.60;;;29.60;54.00;;;;;;6176421;23;20009;-86
2023/07/15 11:38:12;;;;;;;4.20;1.80;;;29.70;52.90;;;;;;6178248;23;20012;-87
2023/07/15 11:40:53;;;;;;;3.85;2.05;;;29.50;54.10;;;;;;6177253;23;19997;-84
2023/07/15 11:43:20;;;;;;;9.90;2.10;;;29.40;55.60;;;;;;6178670;23;20483;-86
2023/07/15 11:45:46;;;;;;;9.05;2.08;;;29.30;54.10;;;;;;6178316;23;20005;-86
2023/07/15 11:48:18;;;;;;;6.55;2.42;;;29.20;55.30;;;;;;6175178;23;20001;-87
2023/07/15 11:51:07;;;;;;;5.05;2.40;;;29.10;54.90;;;;;;6179197;23;20116;-88
2023/07/15 11:53:38;;;;;;;7.50;2.65;;;29.00;55.10;;;;;;6157678;23;20443;-88
2023/07/15 11:56:05;;;;;;;7.57;1.67;;;29.00;54.70;;;;;;6177540;23;20005;-87
2023/07/15 11:58:49;;;;;;;4.80;1.88;;;28.90;55.00;;;;;;6177209;23;20096;-87
2023/07/15 12:01:17;;;;;;;3.22;2.20;;;28.90;55.50;;;;;;6177450;23;20371;-88
2023/07/15 12:03:45;;;;;;;7.50;2.20;;;28.80;55.50;;;;;;6177071;23;20001;-88
2023/07/15 12:06:16;;;;;;;5.60;1.90;;;28.80;56.30;;;;;;6174643;23;20021;-87
2023/07/15 12:08:43;;;;;;;2.75;1.83;;;28.80;57.40;;;;;;6177188;23;20116;-88
2023/07/15 12:11:16;;;;;;;6.45;2.13;;;28.60;57.70;;;;;;6177000;23;20040;-86
2023/07/15 12:13:42;;;;;;;3.72;2.40;;;28.70;57.00;;;;;;6177659;23;20008;-88
2023/07/15 12:16:08;;;;;;;10.30;2.13;;;28.60;56.80;;;;;;6177215;23;20012;-87
2023/07/15 12:18:34;;;;;;;5.43;2.30;;;28.50;58.10;;;;;;6178932;23;19997;-87
2023/07/15 12:20:59;;;;;;;4.28;2.10;;;28.50;58.90;;;;;;6178283;23;20051;-87
2023/07/15 12:23:25;;;;;;;3.60;1.75;;;28.40;59.10;;;;;;6177586;23;20062;-84
2023/07/15 12:25:51;;;;;;;3.90;2.08;;;28.30;59.50;;;;;;6179539;23;20020;-87
2023/07/15 12:28:16;;;;;;;5.70;2.53;;;28.30;60.30;;;;;;6179063;23;20048;-89
2023/07/15 12:30:42;;;;;;;5.80;2.55;;;28.40;59.50;;;;;;6177994;23;20016;-88
2023/07/15 12:33:07;;;;;;;2.85;2.03;;;28.40;60.60;;;;;;6177219;23;20008;-87
2023/07/15 12:35:33;;;;;;;6.72;2.22;;;28.40;62.80;;;;;;6178659;23;20001;-86
2023/07/15 12:37:58;;;;;;;9.50;2.70;;;28.50;61.40;;;;;;6174983;23;20021;-85
2023/07/15 12:40:24;;;;;;;5.68;1.92;;;28.50;62.90;;;;;;6174927;23;20001;-85
2023/07/15 12:42:50;;;;;;;3.50;2.13;;;28.50;62.20;;;;;;6176541;23;20084;-88
2023/07/15 12:45:16;;;;;;;3.53;2.30;;;28.50;63.50;;;;;;6175151;23;20088;-83
2023/07/15 12:47:41;;;;;;;4.97;2.17;;;28.60;65.20;;;;;;6176470;23;20080;-87
2023/07/15 12:50:07;;;;;;;3.83;2.58;;;28.50;66.90;;;;;;6176145;23;20310;-85